sensor_id;sensor_type;location;lat;lon;timestamp;P1;durP1;ratioP1;P2;durP2;ratioP2
15466;SDS011;7834;49.452;11.056;2022-11-25T00:00:17;13.03;;;6.87;;
15466;SDS011;7834;49.452;11.056;2022-11-25T00:02:43;12.77;;;6.50;;
15466;SDS011;7834;49.452;11.056;2022-11-25T00:05:09;10.57;;;6.40;;
15466;SDS011;7834;49.452;11.056;2022-11-25T00:07:36;11.50;;;6.23;;
15466;SDS011;7834;49.452;11.056;2022-11-25T00:10:03;13.10;;;6.43;;
15466;SDS011;7834;49.452;11.056;2022-11-25T00:12:29;15.07;;;6.03;;
15466;SDS011;7834;49.452;11.056;2022-11-25T00:14:55;14.97;;;6.20;;
15466;SDS011;7834;49.452;11.056;2022-11-25T00:17:21;12.47;;;6.40;;
15466;SDS011;7834;49.452;11.056;2022-11-25T00:19:47;12.17;;;5.90;;
15466;SDS011;7834;49.452;11.056;2022-11-25T00:22:14;10.13;;;5.90;;
15466;SDS011;7834;49.452;11.056;2022-11-25T00:24:41;13.17;;;6.23;;
15466;SDS011;7834;49.452;11.056;2022-11-25T00:27:07;11.93;;;6.00;;
15466;SDS011;7834;49.452;11.056;2022-11-25T00:29:33;12.30;;;6.40;;
15466;SDS011;7834;49.452;11.056;2022-11-25T00:31:59;11.07;;;5.80;;
15466;SDS011;7834;49.452;11.056;2022-11-25T00:34:25;14.07;;;5.83;;
15466;SDS011;7834;49.452;11.056;2022-11-25T00:36:51;11.40;;;5.80;;
15466;SDS011;7834;49.452;11.056;2022-11-25T00:39:17;14.37;;;6.03;;
15466;SDS011;7834;49.452;11.056;2022-11-25T00:41:44;10.40;;;5.43;;
15466;SDS011;7834;49.452;11.056;2022-11-25T00:44:29;9.07;;;4.90;;
15466;SDS011;7834;49.452;11.056;2022-11-25T00:47:02;12.23;;;5.43;;
15466;SDS011;7834;49.452;11.056;2022-11-25T00:49:29;9.13;;;6.00;;
15466;SDS011;7834;49.452;11.056;2022-11-25T00:51:55;11.00;;;5.73;;
15466;SDS011;7834;49.452;11.056;2022-11-25T00:54:21;11.60;;;5.60;;
15466;SDS011;7834;49.452;11.056;2022-11-25T00:56:47;10.60;;;5.53;;
15466;SDS011;7834;49.452;11.056;2022-11-25T00:59:13;10.30;;;5.80;;
15466;SDS011;7834;49.452;11.056;2022-11-25T01:01:39;12.80;;;5.53;;
15466;SDS011;7834;49.452;11.056;2022-11-25T01:04:05;12.23;;;5.47;;
15466;SDS011;7834;49.452;11.056;2022-11-25T01:06:32;11.73;;;5.40;;
15466;SDS011;7834;49.452;11.056;2022-11-25T01:08:58;12.37;;;5.73;;
15466;SDS011;7834;49.452;11.056;2022-11-25T01:11:24;14.13;;;5.80;;
15466;SDS011;7834;49.452;11.056;2022-11-25T01:13:51;13.37;;;6.00;;
15466;SDS011;7834;49.452;11.056;2022-11-25T01:16:20;12.50;;;5.80;;
15466;SDS011;7834;49.452;11.056;2022-11-25T01:18:47;9.83;;;5.43;;
15466;SDS011;7834;49.452;11.056;2022-11-25T01:21:15;11.33;;;5.50;;
15466;SDS011;7834;49.452;11.056;2022-11-25T01:23:43;13.27;;;5.80;;
15466;SDS011;7834;49.452;11.056;2022-11-25T01:26:10;8.33;;;5.23;;
15466;SDS011;7834;49.452;11.056;2022-11-25T01:28:36;10.87;;;5.40;;
15466;SDS011;7834;49.452;11.056;2022-11-25T01:31:04;8.97;;;5.73;;
15466;SDS011;7834;49.452;11.056;2022-11-25T01:33:30;13.83;;;6.43;;
15466;SDS011;7834;49.452;11.056;2022-11-25T01:36:03;12.07;;;5.93;;
15466;SDS011;7834;49.452;11.056;2022-11-25T01:38:30;9.73;;;5.40;;
15466;SDS011;7834;49.452;11.056;2022-11-25T01:40:56;9.37;;;5.50;;
15466;SDS011;7834;49.452;11.056;2022-11-25T01:43:23;12.27;;;5.17;;
15466;SDS011;7834;49.452;11.056;2022-11-25T01:45:49;15.20;;;5.87;;
15466;SDS011;7834;49.452;11.056;2022-11-25T01:50:41;10.97;;;5.07;;
15466;SDS011;7834;49.452;11.056;2022-11-25T01:53:08;9.07;;;4.90;;
15466;SDS011;7834;49.452;11.056;2022-11-25T01:55:35;9.70;;;5.10;;
15466;SDS011;7834;49.452;11.056;2022-11-25T01:58:04;10.53;;;5.40;;
15466;SDS011;7834;49.452;11.056;2022-11-25T02:00:31;10.87;;;5.17;;
15466;SDS011;7834;49.452;11.056;2022-11-25T02:02:57;9.57;;;5.00;;
15466;SDS011;7834;49.452;11.056;2022-11-25T02:05:25;8.77;;;4.67;;
15466;SDS011;7834;49.452;11.056;2022-11-25T02:07:54;11.77;;;5.43;;
15466;SDS011;7834;49.452;11.056;2022-11-25T02:10:23;13.23;;;4.97;;
15466;SDS011;7834;49.452;11.056;2022-11-25T02:12:50;9.83;;;4.80;;
15466;SDS011;7834;49.452;11.056;2022-11-25T02:15:16;9.70;;;4.50;;
15466;SDS011;7834;49.452;11.056;2022-11-25T02:17:42;11.37;;;4.93;;
15466;SDS011;7834;49.452;11.056;2022-11-25T02:20:10;15.47;;;5.07;;
15466;SDS011;7834;49.452;11.056;2022-11-25T02:25:08;14.07;;;5.27;;
15466;SDS011;7834;49.452;11.056;2022-11-25T02:27:34;8.90;;;5.33;;
15466;SDS011;7834;49.452;11.056;2022-11-25T02:30:00;9.87;;;4.60;;
15466;SDS011;7834;49.452;11.056;2022-11-25T02:32:26;12.00;;;5.27;;
15466;SDS011;7834;49.452;11.056;2022-11-25T02:34:52;9.43;;;4.80;;
15466;SDS011;7834;49.452;11.056;2022-11-25T02:37:19;9.20;;;5.53;;
15466;SDS011;7834;49.452;11.056;2022-11-25T02:39:46;9.30;;;5.20;;
15466;SDS011;7834;49.452;11.056;2022-11-25T02:42:12;10.93;;;5.10;;
15466;SDS011;7834;49.452;11.056;2022-11-25T02:44:39;10.80;;;5.33;;
15466;SDS011;7834;49.452;11.056;2022-11-25T02:47:05;11.43;;;5.17;;
15466;SDS011;7834;49.452;11.056;2022-11-25T02:49:31;10.43;;;4.93;;
15466;SDS011;7834;49.452;11.056;2022-11-25T02:51:57;12.67;;;4.90;;
15466;SDS011;7834;49.452;11.056;2022-11-25T02:54:23;9.90;;;5.00;;
15466;SDS011;7834;49.452;11.056;2022-11-25T02:56:49;10.93;;;5.53;;
15466;SDS011;7834;49.452;11.056;2022-11-25T02:59:15;9.73;;;4.87;;
15466;SDS011;7834;49.452;11.056;2022-11-25T03:01:41;7.63;;;5.17;;
15466;SDS011;7834;49.452;11.056;2022-11-25T03:04:08;10.87;;;5.07;;
15466;SDS011;7834;49.452;11.056;2022-11-25T03:06:34;7.90;;;4.93;;
15466;SDS011;7834;49.452;11.056;2022-11-25T03:09:01;11.20;;;4.97;;
15466;SDS011;7834;49.452;11.056;2022-11-25T03:11:27;8.27;;;4.50;;
15466;SDS011;7834;49.452;11.056;2022-11-25T03:14:11;8.63;;;4.60;;
15466;SDS011;7834;49.452;11.056;2022-11-25T03:16:37;9.57;;;4.33;;
15466;SDS011;7834;49.452;11.056;2022-11-25T03:19:03;9.00;;;4.50;;
15466;SDS011;7834;49.452;11.056;2022-11-25T03:21:30;11.17;;;4.90;;
15466;SDS011;7834;49.452;11.056;2022-11-25T03:23:56;8.40;;;4.37;;
15466;SDS011;7834;49.452;11.056;2022-11-25T03:26:22;10.47;;;4.40;;
15466;SDS011;7834;49.452;11.056;2022-11-25T03:28:49;13.27;;;5.07;;
15466;SDS011;7834;49.452;11.056;2022-11-25T03:31:16;11.40;;;4.83;;
15466;SDS011;7834;49.452;11.056;2022-11-25T03:33:41;10.50;;;4.63;;
15466;SDS011;7834;49.452;11.056;2022-11-25T03:36:07;8.80;;;5.17;;
15466;SDS011;7834;49.452;11.056;2022-11-25T03:38:33;12.33;;;5.27;;
15466;SDS011;7834;49.452;11.056;2022-11-25T03:40:59;10.53;;;4.90;;
15466;SDS011;7834;49.452;11.056;2022-11-25T03:43:25;11.73;;;5.03;;
15466;SDS011;7834;49.452;11.056;2022-11-25T03:45:51;8.03;;;4.97;;
15466;SDS011;7834;49.452;11.056;2022-11-25T03:48:17;10.73;;;5.30;;
15466;SDS011;7834;49.452;11.056;2022-11-25T03:50:43;10.67;;;5.17;;
15466;SDS011;7834;49.452;11.056;2022-11-25T03:53:09;12.57;;;5.37;;
15466;SDS011;7834;49.452;11.056;2022-11-25T03:55:36;12.93;;;5.60;;
15466;SDS011;7834;49.452;11.056;2022-11-25T03:58:02;9.73;;;5.23;;
15466;SDS011;7834;49.452;11.056;2022-11-25T04:00:28;11.37;;;5.30;;
15466;SDS011;7834;49.452;11.056;2022-11-25T04:02:55;12.23;;;6.00;;
15466;SDS011;7834;49.452;11.056;2022-11-25T04:05:20;11.87;;;5.73;;
15466;SDS011;7834;49.452;11.056;2022-11-25T04:07:46;9.80;;;5.80;;
15466;SDS011;7834;49.452;11.056;2022-11-25T04:10:12;8.27;;;5.80;;
15466;SDS011;7834;49.452;11.056;2022-11-25T04:12:38;12.77;;;5.90;;
15466;SDS011;7834;49.452;11.056;2022-11-25T04:15:11;14.57;;;5.53;;
15466;SDS011;7834;49.452;11.056;2022-11-25T04:17:37;7.00;;;5.20;;
15466;SDS011;7834;49.452;11.056;2022-11-25T04:20:03;9.40;;;5.50;;
15466;SDS011;7834;49.452;11.056;2022-11-25T04:22:29;8.83;;;4.90;;
15466;SDS011;7834;49.452;11.056;2022-11-25T04:24:55;10.30;;;4.77;;
15466;SDS011;7834;49.452;11.056;2022-11-25T04:27:21;10.33;;;5.10;;
15466;SDS011;7834;49.452;11.056;2022-11-25T04:29:47;9.20;;;4.53;;
15466;SDS011;7834;49.452;11.056;2022-11-25T04:32:13;9.40;;;4.87;;
15466;SDS011;7834;49.452;11.056;2022-11-25T04:34:40;8.03;;;4.73;;
15466;SDS011;7834;49.452;11.056;2022-11-25T04:37:06;9.27;;;4.70;;
15466;SDS011;7834;49.452;11.056;2022-11-25T04:39:32;13.23;;;5.53;;
15466;SDS011;7834;49.452;11.056;2022-11-25T04:41:58;12.00;;;5.03;;
15466;SDS011;7834;49.452;11.056;2022-11-25T04:44:42;9.90;;;5.13;;
15466;SDS011;7834;49.452;11.056;2022-11-25T04:47:08;9.40;;;5.07;;
15466;SDS011;7834;49.452;11.056;2022-11-25T04:49:34;8.97;;;5.13;;
15466;SDS011;7834;49.452;11.056;2022-11-25T04:52:00;10.07;;;5.27;;
15466;SDS011;7834;49.452;11.056;2022-11-25T04:54:26;10.30;;;5.20;;
15466;SDS011;7834;49.452;11.056;2022-11-25T04:56:52;12.30;;;5.70;;
15466;SDS011;7834;49.452;11.056;2022-11-25T04:59:18;10.43;;;6.17;;
15466;SDS011;7834;49.452;11.056;2022-11-25T05:02:03;9.87;;;5.33;;
15466;SDS011;7834;49.452;11.056;2022-11-25T05:04:30;8.67;;;5.93;;
15466;SDS011;7834;49.452;11.056;2022-11-25T05:06:56;10.10;;;6.00;;
15466;SDS011;7834;49.452;11.056;2022-11-25T05:09:22;10.17;;;5.83;;
15466;SDS011;7834;49.452;11.056;2022-11-25T05:11:48;7.93;;;5.60;;
15466;SDS011;7834;49.452;11.056;2022-11-25T05:14:14;11.30;;;6.83;;
15466;SDS011;7834;49.452;11.056;2022-11-25T05:16:40;11.30;;;8.00;;
15466;SDS011;7834;49.452;11.056;2022-11-25T05:19:06;12.87;;;7.93;;
15466;SDS011;7834;49.452;11.056;2022-11-25T05:21:32;15.07;;;7.67;;
15466;SDS011;7834;49.452;11.056;2022-11-25T05:23:58;13.20;;;7.97;;
15466;SDS011;7834;49.452;11.056;2022-11-25T05:26:24;13.10;;;7.53;;
15466;SDS011;7834;49.452;11.056;2022-11-25T05:28:50;13.33;;;8.27;;
15466;SDS011;7834;49.452;11.056;2022-11-25T05:31:16;15.77;;;9.30;;
15466;SDS011;7834;49.452;11.056;2022-11-25T05:33:42;15.23;;;8.73;;
15466;SDS011;7834;49.452;11.056;2022-11-25T05:36:08;15.40;;;8.17;;
15466;SDS011;7834;49.452;11.056;2022-11-25T05:38:35;16.37;;;9.30;;
15466;SDS011;7834;49.452;11.056;2022-11-25T05:41:05;17.37;;;9.43;;
15466;SDS011;7834;49.452;11.056;2022-11-25T05:43:31;17.47;;;10.00;;
15466;SDS011;7834;49.452;11.056;2022-11-25T05:45:58;12.80;;;8.63;;
15466;SDS011;7834;49.452;11.056;2022-11-25T05:48:24;13.77;;;8.40;;
15466;SDS011;7834;49.452;11.056;2022-11-25T05:50:50;13.90;;;8.63;;
15466;SDS011;7834;49.452;11.056;2022-11-25T05:53:16;14.00;;;8.37;;
15466;SDS011;7834;49.452;11.056;2022-11-25T05:55:42;19.67;;;9.30;;
15466;SDS011;7834;49.452;11.056;2022-11-25T05:58:08;17.03;;;10.00;;
15466;SDS011;7834;49.452;11.056;2022-11-25T06:00:34;14.13;;;9.07;;
15466;SDS011;7834;49.452;11.056;2022-11-25T06:03:00;15.10;;;9.97;;
15466;SDS011;7834;49.452;11.056;2022-11-25T06:05:26;14.40;;;9.00;;
15466;SDS011;7834;49.452;11.056;2022-11-25T06:07:52;15.80;;;9.63;;
15466;SDS011;7834;49.452;11.056;2022-11-25T06:10:18;15.17;;;9.90;;
15466;SDS011;7834;49.452;11.056;2022-11-25T06:12:45;16.00;;;10.10;;
15466;SDS011;7834;49.452;11.056;2022-11-25T06:15:11;15.57;;;10.07;;
15466;SDS011;7834;49.452;11.056;2022-11-25T06:17:37;15.40;;;10.03;;
15466;SDS011;7834;49.452;11.056;2022-11-25T06:20:04;18.33;;;10.50;;
15466;SDS011;7834;49.452;11.056;2022-11-25T06:22:30;14.73;;;10.03;;
15466;SDS011;7834;49.452;11.056;2022-11-25T06:24:56;19.60;;;9.90;;
15466;SDS011;7834;49.452;11.056;2022-11-25T06:27:22;19.03;;;10.97;;
15466;SDS011;7834;49.452;11.056;2022-11-25T06:29:48;18.37;;;9.67;;
15466;SDS011;7834;49.452;11.056;2022-11-25T06:32:14;16.93;;;9.97;;
15466;SDS011;7834;49.452;11.056;2022-11-25T06:34:40;15.10;;;10.30;;
15466;SDS011;7834;49.452;11.056;2022-11-25T06:37:07;16.37;;;9.67;;
15466;SDS011;7834;49.452;11.056;2022-11-25T06:39:33;15.77;;;10.20;;
15466;SDS011;7834;49.452;11.056;2022-11-25T06:41:59;14.03;;;9.60;;
15466;SDS011;7834;49.452;11.056;2022-11-25T06:44:25;15.17;;;9.90;;
15466;SDS011;7834;49.452;11.056;2022-11-25T06:46:51;15.17;;;9.77;;
15466;SDS011;7834;49.452;11.056;2022-11-25T06:49:17;14.73;;;9.40;;
15466;SDS011;7834;49.452;11.056;2022-11-25T06:51:43;12.43;;;8.63;;
15466;SDS011;7834;49.452;11.056;2022-11-25T06:54:09;13.60;;;8.90;;
15466;SDS011;7834;49.452;11.056;2022-11-25T06:56:35;13.67;;;8.77;;
15466;SDS011;7834;49.452;11.056;2022-11-25T06:59:02;13.90;;;8.83;;
15466;SDS011;7834;49.452;11.056;2022-11-25T07:01:28;13.33;;;9.07;;
15466;SDS011;7834;49.452;11.056;2022-11-25T07:04:04;13.07;;;9.40;;
15466;SDS011;7834;49.452;11.056;2022-11-25T07:06:30;13.47;;;9.57;;
15466;SDS011;7834;49.452;11.056;2022-11-25T07:08:57;14.67;;;8.63;;
15466;SDS011;7834;49.452;11.056;2022-11-25T07:11:24;14.17;;;8.07;;
15466;SDS011;7834;49.452;11.056;2022-11-25T07:13:51;12.73;;;8.30;;
15466;SDS011;7834;49.452;11.056;2022-11-25T07:16:18;9.93;;;7.50;;
15466;SDS011;7834;49.452;11.056;2022-11-25T07:18:44;11.43;;;8.27;;
15466;SDS011;7834;49.452;11.056;2022-11-25T07:21:11;15.17;;;7.33;;
15466;SDS011;7834;49.452;11.056;2022-11-25T07:23:38;12.37;;;8.07;;
15466;SDS011;7834;49.452;11.056;2022-11-25T07:26:08;14.60;;;8.70;;
15466;SDS011;7834;49.452;11.056;2022-11-25T07:28:34;24.00;;;10.23;;
15466;SDS011;7834;49.452;11.056;2022-11-25T07:33:45;13.00;;;8.37;;
15466;SDS011;7834;49.452;11.056;2022-11-25T07:36:12;13.90;;;7.77;;
15466;SDS011;7834;49.452;11.056;2022-11-25T07:38:38;17.30;;;7.70;;
15466;SDS011;7834;49.452;11.056;2022-11-25T07:41:08;11.10;;;7.20;;
15466;SDS011;7834;49.452;11.056;2022-11-25T07:43:34;9.60;;;7.70;;
15466;SDS011;7834;49.452;11.056;2022-11-25T07:46:08;10.20;;;6.43;;
15466;SDS011;7834;49.452;11.056;2022-11-25T07:48:34;12.20;;;6.90;;
15466;SDS011;7834;49.452;11.056;2022-11-25T07:51:00;9.67;;;6.53;;
15466;SDS011;7834;49.452;11.056;2022-11-25T07:53:26;11.37;;;7.67;;
15466;SDS011;7834;49.452;11.056;2022-11-25T07:55:52;9.57;;;6.73;;
15466;SDS011;7834;49.452;11.056;2022-11-25T07:58:18;10.07;;;7.23;;
15466;SDS011;7834;49.452;11.056;2022-11-25T08:00:44;8.93;;;6.97;;
15466;SDS011;7834;49.452;11.056;2022-11-25T08:03:10;11.10;;;7.07;;
15466;SDS011;7834;49.452;11.056;2022-11-25T08:05:36;8.80;;;6.60;;
15466;SDS011;7834;49.452;11.056;2022-11-25T08:08:02;8.93;;;6.30;;
15466;SDS011;7834;49.452;11.056;2022-11-25T08:10:29;10.37;;;7.70;;
15466;SDS011;7834;49.452;11.056;2022-11-25T08:12:55;9.43;;;7.27;;
15466;SDS011;7834;49.452;11.056;2022-11-25T08:15:21;9.73;;;6.87;;
15466;SDS011;7834;49.452;11.056;2022-11-25T08:17:47;9.70;;;6.80;;
15466;SDS011;7834;49.452;11.056;2022-11-25T08:20:16;10.00;;;6.73;;
15466;SDS011;7834;49.452;11.056;2022-11-25T08:22:42;8.90;;;6.27;;
15466;SDS011;7834;49.452;11.056;2022-11-25T08:25:08;6.60;;;5.60;;
15466;SDS011;7834;49.452;11.056;2022-11-25T08:27:34;9.43;;;6.33;;
15466;SDS011;7834;49.452;11.056;2022-11-25T08:30:00;8.97;;;5.80;;
15466;SDS011;7834;49.452;11.056;2022-11-25T08:32:26;8.53;;;6.17;;
15466;SDS011;7834;49.452;11.056;2022-11-25T08:34:52;8.83;;;6.57;;
15466;SDS011;7834;49.452;11.056;2022-11-25T08:37:18;10.20;;;6.23;;
15466;SDS011;7834;49.452;11.056;2022-11-25T08:39:44;8.73;;;5.80;;
15466;SDS011;7834;49.452;11.056;2022-11-25T08:42:11;12.07;;;5.70;;
15466;SDS011;7834;49.452;11.056;2022-11-25T08:44:37;11.83;;;5.90;;
15466;SDS011;7834;49.452;11.056;2022-11-25T08:47:03;8.47;;;5.33;;
15466;SDS011;7834;49.452;11.056;2022-11-25T08:49:29;8.43;;;5.43;;
15466;SDS011;7834;49.452;11.056;2022-11-25T08:51:55;7.53;;;5.60;;
15466;SDS011;7834;49.452;11.056;2022-11-25T08:54:22;7.93;;;5.73;;
15466;SDS011;7834;49.452;11.056;2022-11-25T08:56:48;8.40;;;5.33;;
15466;SDS011;7834;49.452;11.056;2022-11-25T08:59:14;10.83;;;5.90;;
15466;SDS011;7834;49.452;11.056;2022-11-25T09:01:40;7.90;;;5.53;;
15466;SDS011;7834;49.452;11.056;2022-11-25T09:04:06;6.90;;;5.50;;
15466;SDS011;7834;49.452;11.056;2022-11-25T09:06:32;8.37;;;5.10;;
15466;SDS011;7834;49.452;11.056;2022-11-25T09:08:58;7.47;;;5.27;;
15466;SDS011;7834;49.452;11.056;2022-11-25T09:11:25;7.67;;;5.30;;
15466;SDS011;7834;49.452;11.056;2022-11-25T09:13:51;6.50;;;5.30;;
15466;SDS011;7834;49.452;11.056;2022-11-25T09:16:18;7.50;;;5.10;;
15466;SDS011;7834;49.452;11.056;2022-11-25T09:18:45;6.90;;;5.00;;
15466;SDS011;7834;49.452;11.056;2022-11-25T09:21:13;8.27;;;5.10;;
15466;SDS011;7834;49.452;11.056;2022-11-25T09:23:39;7.63;;;4.70;;
15466;SDS011;7834;49.452;11.056;2022-11-25T09:26:06;8.57;;;5.33;;
15466;SDS011;7834;49.452;11.056;2022-11-25T09:28:32;10.30;;;4.90;;
15466;SDS011;7834;49.452;11.056;2022-11-25T09:30:59;6.37;;;4.47;;
15466;SDS011;7834;49.452;11.056;2022-11-25T09:33:25;7.50;;;4.70;;
15466;SDS011;7834;49.452;11.056;2022-11-25T09:35:51;7.13;;;5.13;;
15466;SDS011;7834;49.452;11.056;2022-11-25T09:38:19;6.47;;;5.10;;
15466;SDS011;7834;49.452;11.056;2022-11-25T09:46:14;5.30;;;4.20;;
15466;SDS011;7834;49.452;11.056;2022-11-25T09:54:15;7.20;;;4.10;;
15466;SDS011;7834;49.452;11.056;2022-11-25T09:56:47;6.00;;;4.15;;
15466;SDS011;7834;49.452;11.056;2022-11-25T09:59:15;6.90;;;3.78;;
15466;SDS011;7834;49.452;11.056;2022-11-25T10:02:09;5.47;;;3.73;;
15466;SDS011;7834;49.452;11.056;2022-11-25T10:04:31;9.37;;;4.40;;
15466;SDS011;7834;49.452;11.056;2022-11-25T10:06:58;6.90;;;3.80;;
15466;SDS011;7834;49.452;11.056;2022-11-25T10:09:30;8.57;;;4.00;;
15466;SDS011;7834;49.452;11.056;2022-11-25T10:11:58;5.05;;;4.38;;
15466;SDS011;7834;49.452;11.056;2022-11-25T10:14:32;9.18;;;4.20;;
15466;SDS011;7834;49.452;11.056;2022-11-25T10:17:17;6.43;;;4.55;;
15466;SDS011;7834;49.452;11.056;2022-11-25T10:22:16;8.38;;;4.18;;
15466;SDS011;7834;49.452;11.056;2022-11-25T10:24:44;20.23;;;4.82;;
15466;SDS011;7834;49.452;11.056;2022-11-25T10:27:14;13.38;;;5.10;;
15466;SDS011;7834;49.452;11.056;2022-11-25T10:29:42;8.45;;;4.25;;
15466;SDS011;7834;49.452;11.056;2022-11-25T10:34:47;10.07;;;3.80;;
15466;SDS011;7834;49.452;11.056;2022-11-25T10:37:18;4.93;;;3.55;;
15466;SDS011;7834;49.452;11.056;2022-11-25T10:39:47;8.05;;;4.38;;
15466;SDS011;7834;49.452;11.056;2022-11-25T10:42:14;5.45;;;4.03;;
15466;SDS011;7834;49.452;11.056;2022-11-25T10:44:43;10.10;;;4.32;;
15466;SDS011;7834;49.452;11.056;2022-11-25T10:52:34;6.57;;;4.53;;
15466;SDS011;7834;49.452;11.056;2022-11-25T10:55:15;7.65;;;3.92;;
15466;SDS011;7834;49.452;11.056;2022-11-25T10:57:41;6.63;;;3.60;;
15466;SDS011;7834;49.452;11.056;2022-11-25T11:00:23;4.93;;;3.47;;
15466;SDS011;7834;49.452;11.056;2022-11-25T11:02:49;6.57;;;3.28;;
15466;SDS011;7834;49.452;11.056;2022-11-25T11:05:17;7.20;;;4.10;;
15466;SDS011;7834;49.452;11.056;2022-11-25T11:07:44;7.22;;;4.68;;
15466;SDS011;7834;49.452;11.056;2022-11-25T11:12:53;8.38;;;4.07;;
15466;SDS011;7834;49.452;11.056;2022-11-25T11:15:28;6.38;;;4.15;;
15466;SDS011;7834;49.452;11.056;2022-11-25T11:17:55;8.70;;;3.58;;
15466;SDS011;7834;49.452;11.056;2022-11-25T11:20:22;5.82;;;3.80;;
15466;SDS011;7834;49.452;11.056;2022-11-25T11:23:11;6.75;;;4.13;;
15466;SDS011;7834;49.452;11.056;2022-11-25T11:25:36;7.15;;;4.20;;
15466;SDS011;7834;49.452;11.056;2022-11-25T11:28:04;7.25;;;4.30;;
15466;SDS011;7834;49.452;11.056;2022-11-25T11:30:52;7.45;;;4.43;;
15466;SDS011;7834;49.452;11.056;2022-11-25T11:33:27;7.30;;;4.53;;
15466;SDS011;7834;49.452;11.056;2022-11-25T11:35:59;6.72;;;4.55;;
15466;SDS011;7834;49.452;11.056;2022-11-25T11:38:30;8.18;;;4.63;;
15466;SDS011;7834;49.452;11.056;2022-11-25T11:41:19;5.53;;;4.20;;
15466;SDS011;7834;49.452;11.056;2022-11-25T11:51:47;7.85;;;4.50;;
15466;SDS011;7834;49.452;11.056;2022-11-25T11:54:21;6.28;;;4.45;;
15466;SDS011;7834;49.452;11.056;2022-11-25T11:56:50;8.15;;;5.00;;
15466;SDS011;7834;49.452;11.056;2022-11-25T11:59:29;6.35;;;4.60;;
15466;SDS011;7834;49.452;11.056;2022-11-25T12:04:35;6.70;;;4.70;;
15466;SDS011;7834;49.452;11.056;2022-11-25T12:07:06;6.40;;;4.75;;
15466;SDS011;7834;49.452;11.056;2022-11-25T12:09:36;7.78;;;5.38;;
15466;SDS011;7834;49.452;11.056;2022-11-25T12:12:05;9.50;;;4.78;;
15466;SDS011;7834;49.452;11.056;2022-11-25T12:17:01;12.98;;;6.07;;
15466;SDS011;7834;49.452;11.056;2022-11-25T12:22:06;14.75;;;5.43;;
15466;SDS011;7834;49.452;11.056;2022-11-25T12:27:03;8.20;;;5.10;;
15466;SDS011;7834;49.452;11.056;2022-11-25T12:29:32;8.52;;;5.13;;
15466;SDS011;7834;49.452;11.056;2022-11-25T12:35:21;9.15;;;5.15;;
15466;SDS011;7834;49.452;11.056;2022-11-25T12:37:39;9.45;;;5.18;;
15466;SDS011;7834;49.452;11.056;2022-11-25T12:40:19;9.52;;;5.32;;
15466;SDS011;7834;49.452;11.056;2022-11-25T12:42:49;8.02;;;5.38;;
15466;SDS011;7834;49.452;11.056;2022-11-25T12:45:22;8.20;;;5.10;;
15466;SDS011;7834;49.452;11.056;2022-11-25T12:47:48;14.98;;;4.68;;
15466;SDS011;7834;49.452;11.056;2022-11-25T12:50:16;8.48;;;4.78;;
15466;SDS011;7834;49.452;11.056;2022-11-25T12:53:01;7.88;;;5.40;;
15466;SDS011;7834;49.452;11.056;2022-11-25T12:55:30;9.20;;;4.50;;
15466;SDS011;7834;49.452;11.056;2022-11-25T13:00:29;8.57;;;4.30;;
15466;SDS011;7834;49.452;11.056;2022-11-25T13:16:49;6.75;;;5.15;;
15466;SDS011;7834;49.452;11.056;2022-11-25T13:19:19;9.18;;;5.45;;
15466;SDS011;7834;49.452;11.056;2022-11-25T13:21:55;7.85;;;4.80;;
15466;SDS011;7834;49.452;11.056;2022-11-25T13:24:40;6.05;;;4.70;;
15466;SDS011;7834;49.452;11.056;2022-11-25T13:27:28;9.57;;;5.15;;
15466;SDS011;7834;49.452;11.056;2022-11-25T13:29:53;8.70;;;5.15;;
15466;SDS011;7834;49.452;11.056;2022-11-25T13:32:23;9.95;;;5.97;;
15466;SDS011;7834;49.452;11.056;2022-11-25T13:34:49;10.00;;;5.45;;
15466;SDS011;7834;49.452;11.056;2022-11-25T13:37:35;7.18;;;5.32;;
15466;SDS011;7834;49.452;11.056;2022-11-25T13:42:46;8.63;;;5.25;;
15466;SDS011;7834;49.452;11.056;2022-11-25T13:45:25;10.48;;;5.53;;
15466;SDS011;7834;49.452;11.056;2022-11-25T13:47:52;8.60;;;5.15;;
15466;SDS011;7834;49.452;11.056;2022-11-25T13:50:22;9.73;;;5.55;;
15466;SDS011;7834;49.452;11.056;2022-11-25T13:53:00;13.55;;;5.63;;
15466;SDS011;7834;49.452;11.056;2022-11-25T14:26:25;13.15;;;6.00;;
15466;SDS011;7834;49.452;11.056;2022-11-25T14:31:20;9.68;;;5.95;;
15466;SDS011;7834;49.452;11.056;2022-11-25T14:33:50;10.95;;;6.05;;
15466;SDS011;7834;49.452;11.056;2022-11-25T14:36:21;9.98;;;6.50;;
15466;SDS011;7834;49.452;11.056;2022-11-25T14:38:51;8.60;;;6.35;;
15466;SDS011;7834;49.452;11.056;2022-11-25T14:41:22;10.77;;;6.75;;
15466;SDS011;7834;49.452;11.056;2022-11-25T14:43:55;9.05;;;6.82;;
15466;SDS011;7834;49.452;11.056;2022-11-25T14:46:22;9.13;;;6.55;;
15466;SDS011;7834;49.452;11.056;2022-11-25T14:48:56;9.43;;;6.13;;
15466;SDS011;7834;49.452;11.056;2022-11-25T14:51:26;10.95;;;7.07;;
15466;SDS011;7834;49.452;11.056;2022-11-25T14:53:53;10.00;;;6.23;;
15466;SDS011;7834;49.452;11.056;2022-11-25T14:56:23;11.32;;;6.72;;
15466;SDS011;7834;49.452;11.056;2022-11-25T14:58:50;11.80;;;6.65;;
15466;SDS011;7834;49.452;11.056;2022-11-25T15:01:51;12.40;;;7.30;;
15466;SDS011;7834;49.452;11.056;2022-11-25T15:06:59;9.35;;;6.07;;
15466;SDS011;7834;49.452;11.056;2022-11-25T15:09:35;13.98;;;6.72;;
15466;SDS011;7834;49.452;11.056;2022-11-25T15:12:06;14.25;;;6.57;;
15466;SDS011;7834;49.452;11.056;2022-11-25T15:14:33;11.90;;;6.68;;
15466;SDS011;7834;49.452;11.056;2022-11-25T15:17:05;14.63;;;6.75;;
15466;SDS011;7834;49.452;11.056;2022-11-25T15:19:32;11.60;;;6.63;;
15466;SDS011;7834;49.452;11.056;2022-11-25T15:22:03;13.25;;;7.03;;
15466;SDS011;7834;49.452;11.056;2022-11-25T15:24:30;14.15;;;6.60;;
15466;SDS011;7834;49.452;11.056;2022-11-25T15:26:58;9.48;;;6.80;;
15466;SDS011;7834;49.452;11.056;2022-11-25T15:29:24;10.65;;;7.07;;
15466;SDS011;7834;49.452;11.056;2022-11-25T15:31:51;12.43;;;7.38;;
15466;SDS011;7834;49.452;11.056;2022-11-25T15:34:17;17.48;;;7.88;;
15466;SDS011;7834;49.452;11.056;2022-11-25T15:36:44;16.65;;;9.73;;
15466;SDS011;7834;49.452;11.056;2022-11-25T15:39:14;12.27;;;7.35;;
15466;SDS011;7834;49.452;11.056;2022-11-25T15:41:46;14.38;;;8.00;;
15466;SDS011;7834;49.452;11.056;2022-11-25T15:44:22;16.38;;;9.57;;
15466;SDS011;7834;49.452;11.056;2022-11-25T15:46:50;14.35;;;8.70;;
15466;SDS011;7834;49.452;11.056;2022-11-25T15:49:17;18.20;;;10.05;;
15466;SDS011;7834;49.452;11.056;2022-11-25T15:51:47;19.90;;;9.07;;
15466;SDS011;7834;49.452;11.056;2022-11-25T15:54:16;13.73;;;8.98;;
15466;SDS011;7834;49.452;11.056;2022-11-25T15:56:45;11.07;;;7.35;;
15466;SDS011;7834;49.452;11.056;2022-11-25T16:01:57;11.52;;;7.20;;
15466;SDS011;7834;49.452;11.056;2022-11-25T16:04:23;15.85;;;7.43;;
15466;SDS011;7834;49.452;11.056;2022-11-25T16:06:56;13.02;;;8.27;;
15466;SDS011;7834;49.452;11.056;2022-11-25T16:09:29;10.13;;;6.70;;
15466;SDS011;7834;49.452;11.056;2022-11-25T16:12:03;16.50;;;6.85;;
15466;SDS011;7834;49.452;11.056;2022-11-25T16:14:32;9.95;;;6.78;;
15466;SDS011;7834;49.452;11.056;2022-11-25T16:17:06;11.32;;;6.57;;
15466;SDS011;7834;49.452;11.056;2022-11-25T16:19:41;12.90;;;7.00;;
15466;SDS011;7834;49.452;11.056;2022-11-25T16:22:09;10.15;;;6.65;;
15466;SDS011;7834;49.452;11.056;2022-11-25T16:24:41;12.32;;;6.25;;
15466;SDS011;7834;49.452;11.056;2022-11-25T16:29:56;12.50;;;6.78;;
15466;SDS011;7834;49.452;11.056;2022-11-25T16:32:27;11.38;;;6.57;;
15466;SDS011;7834;49.452;11.056;2022-11-25T16:34:54;12.27;;;6.75;;
15466;SDS011;7834;49.452;11.056;2022-11-25T16:37:21;11.63;;;7.00;;
15466;SDS011;7834;49.452;11.056;2022-11-25T16:39:47;15.50;;;7.10;;